createdAt,value
2023-04-11T00:00:12.263Z,46.00
2023-04-11T00:03:01.934Z,47.75
2023-04-11T00:05:31.488Z,47.25
2023-04-11T00:07:58.994Z,51.50
2023-04-11T00:10:26.136Z,46.50
2023-04-11T00:12:56.904Z,47.00
2023-04-11T00:15:25.041Z,48.25
2023-04-11T00:17:58.237Z,46.50
2023-04-11T00:20:26.076Z,40.50
2023-04-11T00:22:54.246Z,44.00
2023-04-11T00:25:21.500Z,39.50
2023-04-11T00:27:48.868Z,40.25
2023-04-11T00:30:15.835Z,43.00
2023-04-11T00:32:43.222Z,51.25
2023-04-11T00:35:10.491Z,52.25
2023-04-11T00:37:37.835Z,50.75
2023-04-11T00:40:08.344Z,23.25
2023-04-11T00:42:35.750Z,49.25
2023-04-11T00:45:02.955Z,52.50
2023-04-11T00:47:33.021Z,49.00
2023-04-11T00:50:00.158Z,46.00
2023-04-11T00:52:27.575Z,46.00
2023-04-11T00:54:54.722Z,46.75
2023-04-11T00:57:22.891Z,45.25
2023-04-11T00:59:51.579Z,42.50
2023-04-11T01:02:19.370Z,48.75
2023-04-11T01:04:46.819Z,36.00
2023-04-11T01:07:14.565Z,45.25
2023-04-11T01:09:42.083Z,43.00
2023-04-11T01:12:10.764Z,43.25
2023-04-11T01:14:38.138Z,47.25
2023-04-11T01:17:05.592Z,47.00
2023-04-11T01:19:33.724Z,47.25
2023-04-11T01:22:02.086Z,42.00
2023-04-11T01:24:29.124Z,49.25
2023-04-11T01:26:57.265Z,41.75
2023-04-11T01:29:24.320Z,42.25
2023-04-11T01:31:52.143Z,44.75
2023-04-11T01:34:19.925Z,47.00
2023-04-11T01:36:47.964Z,53.50
2023-04-11T01:39:15.140Z,53.25
2023-04-11T01:41:43.452Z,53.00
2023-04-11T01:44:10.465Z,53.25
2023-04-11T01:46:38.128Z,47.50
2023-04-11T01:49:06.780Z,47.00
2023-04-11T01:51:34.121Z,43.75
2023-04-11T01:54:01.066Z,43.75
2023-04-11T01:56:28.552Z,44.75
2023-04-11T01:58:59.303Z,45.25
2023-04-11T02:01:26.953Z,46.25
2023-04-11T02:03:54.537Z,48.50
2023-04-11T02:06:21.789Z,51.75
2023-04-11T02:08:48.815Z,57.00
2023-04-11T02:11:16.355Z,50.50
2023-04-11T02:13:43.249Z,55.25
2023-04-11T02:16:15.446Z,45.00
2023-04-11T02:18:43.590Z,40.75
2023-04-11T02:21:11.573Z,53.00
2023-04-11T02:23:38.597Z,50.50
2023-04-11T02:26:06.389Z,53.50
2023-04-11T02:28:33.422Z,54.25
2023-04-11T02:31:00.767Z,59.50
2023-04-11T02:33:28.228Z,56.50
2023-04-11T02:35:55.687Z,53.50
2023-04-11T02:38:22.732Z,52.50
2023-04-11T02:40:50.074Z,54.75
2023-04-11T02:43:17.222Z,54.25
2023-04-11T02:45:44.420Z,48.75
2023-04-11T02:48:11.450Z,51.00
2023-04-11T02:50:41.072Z,48.50
2023-04-11T02:53:08.256Z,50.50
2023-04-11T02:55:36.658Z,53.50
2023-04-11T02:58:03.538Z,54.75
2023-04-11T03:00:31.488Z,55.75
2023-04-11T03:02:59.323Z,56.25
2023-04-11T03:05:26.671Z,64.75
2023-04-11T03:07:53.634Z,61.00
2023-04-11T03:10:21.301Z,56.00
2023-04-11T03:12:48.202Z,62.50
2023-04-11T03:15:15.711Z,72.75
2023-04-11T03:17:43.130Z,62.50
2023-04-11T03:20:11.896Z,64.75
2023-04-11T03:22:39.217Z,65.00
2023-04-11T03:25:07.524Z,64.50
2023-04-11T03:27:34.449Z,74.25
2023-04-11T03:30:01.933Z,64.50
2023-04-11T03:32:29.073Z,70.00
2023-04-11T03:34:57.625Z,77.50
2023-04-11T03:37:24.547Z,74.50
2023-04-11T03:39:51.939Z,67.75
2023-04-11T03:42:18.960Z,58.75
2023-04-11T03:44:46.193Z,57.00
2023-04-11T03:47:14.093Z,61.50
2023-04-11T03:49:41.390Z,55.75
2023-04-11T03:52:09.956Z,56.00
2023-04-11T03:54:40.840Z,57.75
2023-04-11T03:57:07.981Z,58.75
2023-04-11T03:59:36.500Z,63.75
2023-04-11T04:02:03.675Z,63.50
2023-04-11T04:04:32.575Z,57.00
2023-04-11T04:06:59.666Z,58.25
2023-04-11T04:09:27.391Z,62.50
2023-04-11T04:11:54.270Z,59.00
2023-04-11T04:14:21.555Z,60.00
2023-04-11T04:16:48.953Z,61.25
2023-04-11T04:19:16.205Z,44.00
2023-04-11T04:21:43.470Z,63.25
2023-04-11T04:24:12.417Z,64.00
2023-04-11T04:26:39.900Z,61.25
2023-04-11T04:29:10.275Z,60.75
2023-04-11T04:31:38.388Z,57.25
2023-04-11T04:34:10.460Z,47.00
2023-04-11T04:36:46.629Z,53.25
2023-04-11T04:39:17.738Z,57.00
2023-04-11T04:41:46.058Z,57.75
2023-04-11T04:44:16.030Z,60.50
2023-04-11T04:46:46.146Z,57.75
2023-04-11T04:49:13.545Z,55.25
2023-04-11T04:51:40.814Z,64.00
2023-04-11T04:54:08.312Z,62.25
2023-04-11T04:56:35.792Z,55.50
2023-04-11T04:59:03.429Z,57.00
2023-04-11T05:01:33.197Z,61.00
2023-04-11T05:04:01.474Z,60.50
2023-04-11T05:06:30.235Z,60.50
2023-04-11T05:09:02.489Z,57.00
2023-04-11T05:11:29.668Z,53.50
2023-04-11T05:13:57.296Z,59.25
2023-04-11T05:16:25.106Z,53.50
2023-04-11T05:18:52.366Z,59.75
2023-04-11T05:21:19.624Z,62.25
2023-04-11T05:23:47.250Z,59.25
2023-04-11T05:26:14.453Z,60.00
2023-04-11T05:28:41.739Z,59.75
2023-04-11T05:31:09.982Z,53.75
2023-04-11T05:33:38.471Z,57.50
2023-04-11T05:36:06.698Z,55.50
2023-04-11T05:38:34.148Z,50.75
2023-04-11T05:41:01.396Z,48.50
2023-04-11T05:43:28.795Z,46.00
2023-04-11T05:45:56.110Z,41.75
2023-04-11T05:48:24.091Z,46.25
2023-04-11T05:50:51.563Z,43.50
2023-04-11T05:53:19.386Z,39.00
2023-04-11T05:55:46.526Z,37.00
2023-04-11T05:58:14.041Z,39.25
2023-04-11T06:00:41.438Z,34.00
2023-04-11T06:03:09.581Z,33.00
2023-04-11T06:05:37.040Z,37.50
2023-04-11T06:08:05.819Z,29.00
2023-04-11T06:10:32.944Z,33.00
2023-04-11T06:13:00.176Z,26.25
2023-04-11T06:15:28.518Z,27.50
2023-04-11T06:17:55.988Z,28.50
2023-04-11T06:20:23.852Z,27.33
2023-04-11T06:22:51.678Z,27.67
2023-04-11T06:25:20.407Z,26.67
2023-04-11T06:27:48.411Z,33.00
2023-04-11T06:30:16.145Z,30.00
2023-04-11T06:32:43.396Z,27.00
2023-04-11T06:35:10.367Z,27.33
2023-04-11T06:37:38.023Z,32.33
2023-04-11T06:40:08.255Z,26.33
2023-04-11T06:42:35.720Z,16.00
2023-04-11T06:45:04.319Z,25.00
2023-04-11T06:47:31.614Z,22.33
2023-04-11T06:49:59.438Z,28.00
2023-04-11T06:52:28.274Z,29.67
2023-04-11T06:54:55.357Z,31.00
2023-04-11T06:57:22.749Z,29.00
2023-04-11T06:59:50.283Z,27.67
2023-04-11T07:02:17.670Z,25.67
2023-04-11T07:04:44.952Z,29.00
2023-04-11T07:07:12.866Z,22.33
2023-04-11T07:09:39.893Z,28.33
2023-04-11T07:12:07.223Z,25.00
2023-04-11T07:14:34.744Z,21.67
2023-04-11T07:17:02.432Z,24.00
2023-04-11T07:19:29.433Z,19.00
2023-04-11T07:21:57.141Z,24.33
2023-04-11T07:24:24.198Z,36.00
2023-04-11T07:26:52.097Z,23.00
2023-04-11T07:29:19.636Z,28.33
2023-04-11T07:31:50.454Z,22.33
2023-04-11T07:34:17.668Z,19.33
2023-04-11T07:36:48.932Z,26.00
2023-04-11T07:39:16.477Z,22.33
2023-04-11T07:41:44.939Z,23.00
2023-04-11T07:44:12.154Z,24.33
2023-04-11T07:46:39.529Z,22.67
2023-04-11T07:49:06.623Z,26.33
2023-04-11T07:51:34.659Z,18.33
2023-04-11T07:54:01.708Z,24.00
2023-04-11T07:56:29.252Z,17.67
2023-04-11T07:58:58.757Z,24.67
2023-04-11T08:01:27.103Z,25.00
2023-04-11T08:03:55.319Z,24.00
2023-04-11T08:06:23.715Z,20.67
2023-04-11T08:08:51.100Z,18.25
2023-04-11T08:11:18.397Z,20.00
2023-04-11T08:13:45.639Z,17.33
2023-04-11T08:16:15.564Z,17.50
2023-04-11T08:18:42.948Z,19.75
2023-04-11T08:21:13.945Z,14.25
2023-04-11T08:23:42.572Z,15.75
2023-04-11T08:26:12.076Z,18.50
2023-04-11T08:28:41.810Z,20.75
2023-04-11T08:31:10.747Z,13.25
2023-04-11T08:33:39.381Z,17.00
2023-04-11T08:36:10.661Z,16.25
2023-04-11T08:38:38.713Z,20.00
2023-04-11T08:41:06.474Z,15.75
2023-04-11T08:43:37.912Z,21.00
2023-04-11T08:46:05.701Z,17.50
2023-04-11T08:48:33.106Z,18.25
2023-04-11T08:51:00.784Z,18.25
2023-04-11T08:53:28.734Z,19.50
2023-04-11T08:55:56.358Z,17.50
2023-04-11T08:58:23.603Z,20.25
2023-04-11T09:00:51.125Z,22.00
2023-04-11T09:03:18.517Z,20.75
2023-04-11T09:05:49.750Z,18.00
2023-04-11T09:08:17.706Z,21.25
2023-04-11T09:10:45.821Z,17.25
2023-04-11T09:13:27.310Z,12.75
2023-04-11T09:16:05.910Z,16.00
2023-04-11T09:18:37.748Z,14.75
2023-04-11T09:21:07.824Z,14.50
2023-04-11T09:23:35.652Z,12.75
2023-04-11T09:26:05.353Z,16.25
2023-04-11T09:28:44.302Z,12.75
2023-04-11T09:31:14.784Z,15.00
2023-04-11T09:33:54.062Z,12.50
2023-04-11T09:36:23.656Z,15.25
2023-04-11T09:38:51.986Z,14.25
2023-04-11T09:41:33.677Z,15.75
2023-04-11T09:44:01.287Z,14.50
2023-04-11T09:46:28.717Z,14.50
2023-04-11T09:48:56.808Z,15.00
2023-04-11T09:53:56.534Z,14.00
2023-04-11T09:56:26.756Z,14.75
2023-04-11T09:58:55.071Z,14.75
2023-04-11T10:01:24.635Z,15.50
2023-04-11T10:03:52.956Z,15.00
2023-04-11T10:06:34.325Z,14.50
2023-04-11T10:09:12.611Z,17.00
2023-04-11T10:11:44.003Z,14.00
2023-04-11T10:14:39.344Z,14.75
2023-04-11T10:17:23.992Z,35.75
2023-04-11T10:19:56.874Z,36.50
2023-04-11T10:22:46.731Z,18.75
2023-04-11T10:25:25.505Z,16.50
2023-04-11T10:27:54.855Z,14.75
2023-04-11T10:30:43.059Z,23.25
2023-04-11T10:33:16.094Z,24.50
2023-04-11T10:36:06.234Z,12.50
2023-04-11T10:38:49.401Z,14.25
2023-04-11T10:41:23.142Z,26.25
2023-04-11T10:43:51.149Z,13.00
2023-04-11T10:46:18.964Z,17.50
2023-04-11T10:49:03.618Z,12.25
2023-04-11T10:51:32.860Z,16.50
2023-04-11T10:54:00.772Z,12.25
2023-04-11T10:56:40.548Z,17.50
2023-04-11T10:59:10.926Z,12.50
2023-04-11T11:04:10.824Z,11.00
2023-04-11T11:06:47.184Z,11.00
2023-04-11T11:09:26.389Z,11.25
2023-04-11T11:12:09.168Z,11.75
2023-04-11T11:14:37.299Z,12.00
2023-04-11T11:17:04.653Z,11.25
2023-04-11T11:19:32.357Z,11.00
2023-04-11T11:22:04.262Z,14.00
2023-04-11T11:24:31.640Z,13.00
2023-04-11T11:26:59.063Z,10.75
2023-04-11T11:29:38.147Z,11.25
2023-04-11T11:32:06.876Z,13.75
2023-04-11T11:34:35.387Z,13.25
2023-04-11T11:37:06.696Z,9.00
2023-04-11T11:39:34.570Z,12.75
2023-04-11T11:42:02.194Z,9.00
2023-04-11T11:44:30.885Z,15.00
2023-04-11T11:47:27.442Z,18.25
2023-04-11T11:49:55.738Z,31.00
2023-04-11T11:52:33.689Z,11.50
2023-04-11T11:55:09.545Z,11.25
2023-04-11T11:57:37.991Z,12.75
2023-04-11T12:00:06.554Z,9.50
2023-04-11T12:02:35.409Z,9.75
2023-04-11T12:05:05.689Z,11.75
2023-04-11T12:07:34.457Z,11.50
2023-04-11T12:10:03.766Z,14.00
2023-04-11T12:12:53.168Z,9.75
2023-04-11T12:15:23.137Z,12.50
2023-04-11T12:17:51.685Z,12.75
2023-04-11T12:20:26.934Z,10.75
2023-04-11T12:22:55.253Z,10.50
2023-04-11T12:25:23.290Z,11.75
2023-04-11T12:27:50.416Z,9.25
2023-04-11T12:30:18.830Z,13.75
2023-04-11T12:32:45.906Z,12.75
2023-04-11T12:35:13.540Z,11.00
2023-04-11T12:37:41.315Z,14.25
2023-04-11T12:40:12.236Z,15.75
2023-04-11T12:42:53.185Z,11.25
2023-04-11T12:45:23.887Z,15.50
2023-04-11T12:47:51.376Z,15.50
2023-04-11T12:50:18.754Z,15.25
2023-04-11T12:52:48.717Z,14.00
2023-04-11T12:55:16.226Z,12.75
2023-04-11T12:57:43.948Z,16.00
2023-04-11T13:00:12.973Z,12.00
2023-04-11T13:02:44.054Z,12.50
2023-04-11T13:05:14.215Z,14.25
2023-04-11T13:07:45.439Z,11.00
2023-04-11T13:10:16.353Z,7.25
2023-04-11T13:12:45.113Z,11.50
2023-04-11T13:15:14.825Z,10.25
2023-04-11T13:17:42.517Z,9.25
2023-04-11T13:20:11.169Z,7.00
2023-04-11T13:22:41.994Z,11.25
2023-04-11T13:25:10.617Z,12.25
2023-04-11T13:27:39.669Z,13.00
2023-04-11T13:30:08.639Z,10.25
2023-04-11T13:32:36.313Z,9.50
2023-04-11T13:35:04.399Z,9.00
2023-04-11T13:37:31.650Z,10.00
2023-04-11T13:39:58.945Z,10.00
2023-04-11T13:42:26.248Z,9.50
2023-04-11T13:44:53.894Z,8.00
2023-04-11T13:47:21.036Z,8.50
2023-04-11T13:49:49.162Z,7.50
2023-04-11T13:52:16.638Z,12.00
2023-04-11T13:54:44.140Z,5.75
2023-04-11T13:57:11.658Z,13.00
2023-04-11T13:59:39.194Z,11.00
2023-04-11T14:02:06.485Z,12.25
2023-04-11T14:04:35.406Z,14.50
2023-04-11T14:07:02.583Z,18.25
2023-04-11T14:09:29.941Z,22.00
2023-04-11T14:11:57.928Z,22.00
2023-04-11T14:14:25.611Z,20.67
2023-04-11T14:16:52.918Z,17.00
2023-04-11T14:19:22.819Z,20.33
2023-04-11T14:21:51.677Z,15.00
2023-04-11T14:24:22.435Z,11.67
2023-04-11T14:26:50.404Z,18.00
2023-04-11T14:29:18.751Z,23.00
2023-04-11T14:31:46.736Z,22.00
2023-04-11T14:34:14.398Z,27.33
2023-04-11T14:36:41.670Z,22.33
2023-04-11T14:39:09.007Z,28.33
2023-04-11T14:41:36.436Z,31.67
2023-04-11T14:44:03.871Z,27.67
2023-04-11T14:46:31.193Z,29.67
2023-04-11T14:48:58.853Z,28.67
2023-04-11T14:51:27.911Z,29.00
2023-04-11T14:53:56.324Z,30.33
2023-04-11T14:56:24.551Z,27.67
2023-04-11T14:58:52.524Z,28.00
2023-04-11T15:01:20.343Z,35.67
2023-04-11T15:03:48.966Z,28.00
2023-04-11T15:06:16.416Z,36.00
2023-04-11T15:08:43.866Z,32.00
2023-04-11T15:11:10.972Z,20.00
2023-04-11T15:13:38.384Z,18.67
2023-04-11T15:16:06.684Z,22.33
2023-04-11T15:18:35.258Z,21.33
2023-04-11T15:21:03.715Z,26.67
2023-04-11T15:23:31.252Z,27.00
2023-04-11T15:26:00.497Z,37.00
2023-04-11T15:28:35.078Z,23.33
2023-04-11T15:31:03.609Z,34.67
2023-04-11T15:33:32.011Z,30.33
2023-04-11T15:36:00.754Z,34.00
2023-04-11T15:38:28.791Z,23.00
2023-04-11T15:40:58.640Z,25.67
2023-04-11T15:43:26.572Z,16.33
2023-04-11T15:45:55.469Z,26.67
2023-04-11T15:48:22.808Z,16.67
2023-04-11T15:50:51.021Z,21.67
2023-04-11T15:53:19.036Z,16.67
2023-04-11T15:55:47.730Z,15.00
2023-04-11T15:58:15.403Z,19.00
2023-04-11T16:00:44.813Z,22.00
2023-04-11T16:03:12.650Z,22.00
2023-04-11T16:05:43.125Z,22.00
2023-04-11T16:08:11.339Z,17.00
2023-04-11T16:10:38.497Z,25.33
2023-04-11T16:13:05.796Z,24.25
2023-04-11T16:15:32.964Z,31.25
2023-04-11T16:18:00.691Z,17.00
2023-04-11T16:20:28.217Z,24.00
2023-04-11T16:22:56.192Z,24.67
2023-04-11T16:25:23.250Z,18.00
2023-04-11T16:27:51.647Z,17.00
2023-04-11T16:30:19.245Z,27.33
2023-04-11T16:32:46.640Z,23.67
2023-04-11T16:35:14.086Z,23.67
2023-04-11T16:37:41.860Z,29.67
2023-04-11T16:40:12.568Z,27.25
2023-04-11T16:42:40.674Z,26.75
2023-04-11T16:45:10.065Z,24.00
2023-04-11T16:47:37.989Z,26.50
2023-04-11T16:50:06.117Z,25.50
2023-04-11T16:52:33.952Z,25.00
2023-04-11T16:55:01.260Z,25.25
2023-04-11T16:57:29.823Z,17.75
2023-04-11T16:59:57.609Z,23.50
2023-04-11T17:02:25.423Z,26.25
2023-04-11T17:04:55.137Z,25.00
2023-04-11T17:07:22.891Z,29.75
2023-04-11T17:09:50.007Z,29.50
2023-04-11T17:12:17.723Z,21.50
2023-04-11T17:14:45.862Z,24.25
2023-04-11T17:17:13.364Z,22.00
2023-04-11T17:19:40.852Z,18.50
2023-04-11T17:22:09.899Z,14.25
2023-04-11T17:24:37.032Z,15.75
2023-04-11T17:27:04.550Z,21.00
2023-04-11T17:29:32.452Z,11.75
2023-04-11T17:31:59.819Z,11.25
2023-04-11T17:34:26.798Z,10.75
2023-04-11T17:36:54.846Z,15.75
2023-04-11T17:39:22.088Z,16.00
2023-04-11T17:41:49.625Z,14.25
2023-04-11T17:44:18.016Z,10.25
2023-04-11T17:46:45.778Z,18.00
2023-04-11T17:49:13.456Z,12.00
2023-04-11T17:51:48.779Z,22.25
2023-04-11T17:55:13.162Z,22.50
2023-04-11T17:57:59.310Z,26.50
2023-04-11T18:00:27.026Z,24.50
2023-04-11T18:02:58.077Z,26.25
2023-04-11T18:05:31.647Z,33.50
2023-04-11T18:07:59.995Z,38.75
2023-04-11T18:10:28.316Z,33.50
2023-04-11T18:12:57.006Z,33.25
2023-04-11T18:15:25.888Z,27.75
2023-04-11T18:17:53.592Z,28.75
2023-04-11T18:20:24.256Z,39.75
2023-04-11T18:22:54.880Z,27.75
2023-04-11T18:25:22.843Z,30.00
2023-04-11T18:27:50.123Z,38.75
2023-04-11T18:30:17.648Z,32.75
2023-04-11T18:32:49.734Z,33.25
2023-04-11T18:35:18.822Z,38.25
2023-04-11T18:37:46.657Z,37.75
2023-04-11T18:40:15.519Z,36.50
2023-04-11T18:42:51.701Z,45.50
2023-04-11T18:45:23.334Z,47.25
2023-04-11T18:47:51.180Z,41.00
2023-04-11T18:50:19.386Z,35.00
2023-04-11T18:52:49.882Z,36.50
2023-04-11T18:55:21.235Z,35.00
2023-04-11T18:57:49.420Z,40.75
2023-04-11T19:00:19.586Z,33.25
2023-04-11T19:02:48.927Z,29.50
2023-04-11T19:05:18.683Z,28.75
2023-04-11T19:07:46.895Z,28.50
2023-04-11T19:10:17.740Z,36.00
2023-04-11T19:12:45.228Z,31.00
2023-04-11T19:15:12.998Z,35.25
2023-04-11T19:17:40.861Z,25.00
2023-04-11T19:20:13.272Z,26.25
2023-04-11T19:22:41.219Z,21.50
2023-04-11T19:25:11.429Z,21.25
2023-04-11T19:27:41.744Z,24.00
2023-04-11T19:30:11.475Z,18.75
2023-04-11T19:32:41.183Z,14.75
2023-04-11T19:35:12.845Z,19.50
2023-04-11T19:37:41.039Z,18.75
2023-04-11T19:40:13.818Z,11.75
2023-04-11T19:42:42.020Z,21.25
2023-04-11T19:45:11.372Z,13.25
2023-04-11T19:47:40.130Z,18.00
2023-04-11T19:50:12.113Z,16.75
2023-04-11T19:52:40.682Z,16.00
2023-04-11T19:55:09.524Z,9.50
2023-04-11T19:57:40.885Z,21.50
2023-04-11T20:00:17.805Z,17.75
2023-04-11T20:02:47.013Z,16.50
2023-04-11T20:05:16.431Z,21.00
2023-04-11T20:07:44.236Z,23.50
2023-04-11T20:10:13.042Z,23.25
2023-04-11T20:12:40.397Z,22.50
2023-04-11T20:15:39.096Z,24.00
2023-04-11T20:18:07.155Z,24.00
2023-04-11T20:20:36.886Z,31.75
2023-04-11T20:23:05.480Z,32.50
2023-04-11T20:25:34.049Z,30.50
2023-04-11T20:28:01.744Z,33.00
2023-04-11T20:30:34.668Z,36.25
2023-04-11T20:33:02.526Z,25.00
2023-04-11T20:35:30.597Z,34.75
2023-04-11T20:37:58.128Z,36.50
2023-04-11T20:40:25.547Z,40.50
2023-04-11T20:42:52.648Z,40.50
2023-04-11T20:45:25.932Z,25.25
2023-04-11T20:47:53.306Z,36.00
2023-04-11T20:50:21.781Z,33.75
2023-04-11T20:52:53.555Z,30.50
2023-04-11T20:55:22.256Z,31.75
2023-04-11T20:57:49.839Z,37.25
2023-04-11T21:01:09.183Z,28.00
2023-04-11T21:03:39.051Z,31.00
2023-04-11T21:06:08.271Z,29.25
2023-04-11T21:08:37.568Z,26.50
2023-04-11T21:11:05.770Z,27.75
2023-04-11T21:13:32.837Z,33.50
2023-04-11T21:16:00.568Z,34.25
2023-04-11T21:18:27.801Z,29.25
2023-04-11T21:21:02.300Z,25.00
2023-04-11T21:23:32.622Z,36.50
2023-04-11T21:26:08.261Z,29.25
2023-04-11T21:28:35.452Z,35.00
2023-04-11T21:31:02.873Z,25.75
2023-04-11T21:33:30.319Z,28.50
2023-04-11T21:35:57.736Z,26.50
2023-04-11T21:38:25.069Z,16.25
2023-04-11T21:40:52.772Z,28.00
2023-04-11T21:43:20.151Z,23.00
2023-04-11T21:45:47.475Z,21.50
2023-04-11T21:48:14.572Z,22.50
2023-04-11T21:50:42.095Z,25.25
2023-04-11T21:53:09.016Z,24.25
2023-04-11T21:55:36.438Z,32.00
2023-04-11T21:58:03.610Z,27.50
2023-04-11T22:00:31.161Z,26.75
2023-04-11T22:02:58.382Z,30.25
2023-04-11T22:05:26.599Z,20.50
2023-04-11T22:08:11.986Z,20.00
2023-04-11T22:10:47.706Z,17.00
2023-04-11T22:13:17.338Z,19.25
2023-04-11T22:15:45.695Z,21.00
2023-04-11T22:18:13.012Z,24.00
2023-04-11T22:20:44.315Z,23.25
2023-04-11T22:23:13.023Z,14.50
2023-04-11T22:25:44.325Z,18.50
2023-04-11T22:28:18.434Z,15.75
2023-04-11T22:30:49.215Z,23.50
2023-04-11T22:33:17.315Z,24.75
2023-04-11T22:35:45.286Z,17.00
2023-04-11T22:38:12.473Z,15.75
2023-04-11T22:40:40.597Z,20.75
2023-04-11T22:43:07.710Z,14.75
2023-04-11T22:45:36.084Z,22.00
2023-04-11T22:48:04.684Z,21.25
2023-04-11T22:50:32.575Z,17.50
2023-04-11T22:53:02.755Z,19.00
2023-04-11T22:55:34.418Z,15.00
2023-04-11T22:58:02.350Z,14.00
2023-04-11T23:00:30.105Z,19.25
2023-04-11T23:02:59.901Z,20.75
2023-04-11T23:05:27.588Z,19.00
2023-04-11T23:07:54.832Z,20.00
2023-04-11T23:10:22.224Z,20.25
2023-04-11T23:12:49.628Z,22.25
2023-04-11T23:15:17.662Z,19.25
2023-04-11T23:17:45.123Z,21.00
2023-04-11T23:20:13.822Z,23.00
2023-04-11T23:22:42.783Z,21.75
2023-04-11T23:25:16.019Z,18.50
2023-04-11T23:27:44.613Z,19.00
2023-04-11T23:30:12.736Z,10.75
2023-04-11T23:32:40.046Z,15.25
2023-04-11T23:35:08.303Z,16.25
2023-04-11T23:37:35.257Z,15.00
2023-04-11T23:40:11.127Z,19.00
2023-04-11T23:42:39.156Z,14.25
2023-04-11T23:45:07.850Z,11.50
2023-04-11T23:47:35.175Z,9.50
2023-04-11T23:50:03.821Z,9.00
2023-04-11T23:52:32.111Z,13.25
2023-04-11T23:54:59.611Z,10.75
2023-04-11T23:57:26.665Z,6.25
2023-04-11T23:59:53.864Z,9.25
